sensor_id;sensor_type;location;lat;lon;timestamp;temperature;humidity
35373;DHT22;21476;51.652;7.852;2022-11-15T00:01:47;8.90;99.90
35373;DHT22;21476;51.652;7.852;2022-11-15T00:04:13;8.90;99.90
35373;DHT22;21476;51.652;7.852;2022-11-15T00:06:38;8.90;99.90
35373;DHT22;21476;51.652;7.852;2022-11-15T00:09:04;8.90;99.90
35373;DHT22;21476;51.652;7.852;2022-11-15T00:11:30;9.00;99.90
35373;DHT22;21476;51.652;7.852;2022-11-15T00:13:56;9.00;99.90
35373;DHT22;21476;51.652;7.852;2022-11-15T00:16:23;9.00;99.90
35373;DHT22;21476;51.652;7.852;2022-11-15T00:18:49;8.90;99.90
35373;DHT22;21476;51.652;7.852;2022-11-15T00:21:15;8.90;99.90
35373;DHT22;21476;51.652;7.852;2022-11-15T00:23:41;8.90;99.90
35373;DHT22;21476;51.652;7.852;2022-11-15T00:26:11;8.90;99.90
35373;DHT22;21476;51.652;7.852;2022-11-15T00:28:37;8.90;99.90
35373;DHT22;21476;51.652;7.852;2022-11-15T00:31:04;9.00;99.90
35373;DHT22;21476;51.652;7.852;2022-11-15T00:33:31;9.00;99.90
35373;DHT22;21476;51.652;7.852;2022-11-15T00:36:04;9.00;99.90
35373;DHT22;21476;51.652;7.852;2022-11-15T00:38:32;9.00;99.90
35373;DHT22;21476;51.652;7.852;2022-11-15T00:40:58;8.90;99.90
35373;DHT22;21476;51.652;7.852;2022-11-15T00:43:24;8.90;99.90
35373;DHT22;21476;51.652;7.852;2022-11-15T00:45:49;9.00;99.90
35373;DHT22;21476;51.652;7.852;2022-11-15T00:48:15;9.00;99.90
35373;DHT22;21476;51.652;7.852;2022-11-15T00:50:41;9.00;99.90
35373;DHT22;21476;51.652;7.852;2022-11-15T00:53:06;9.00;99.90
35373;DHT22;21476;51.652;7.852;2022-11-15T00:55:32;9.00;99.90
35373;DHT22;21476;51.652;7.852;2022-11-15T00:57:57;9.00;99.90
35373;DHT22;21476;51.652;7.852;2022-11-15T01:00:23;9.00;99.90
35373;DHT22;21476;51.652;7.852;2022-11-15T01:02:49;8.90;99.90
35373;DHT22;21476;51.652;7.852;2022-11-15T01:05:14;9.00;99.90
35373;DHT22;21476;51.652;7.852;2022-11-15T01:07:40;9.10;99.90
35373;DHT22;21476;51.652;7.852;2022-11-15T01:10:06;9.10;99.90
35373;DHT22;21476;51.652;7.852;2022-11-15T01:12:32;9.10;99.90
35373;DHT22;21476;51.652;7.852;2022-11-15T01:14:57;9.20;99.90
35373;DHT22;21476;51.652;7.852;2022-11-15T01:17:23;9.00;99.90
35373;DHT22;21476;51.652;7.852;2022-11-15T01:19:49;9.00;99.90
35373;DHT22;21476;51.652;7.852;2022-11-15T01:22:15;9.00;99.90
35373;DHT22;21476;51.652;7.852;2022-11-15T01:24:41;8.90;99.90
35373;DHT22;21476;51.652;7.852;2022-11-15T01:27:06;8.90;99.90
35373;DHT22;21476;51.652;7.852;2022-11-15T01:29:33;8.90;99.90
35373;DHT22;21476;51.652;7.852;2022-11-15T01:31:58;8.90;99.90
35373;DHT22;21476;51.652;7.852;2022-11-15T01:34:24;9.00;99.90
35373;DHT22;21476;51.652;7.852;2022-11-15T01:36:50;9.00;99.90
35373;DHT22;21476;51.652;7.852;2022-11-15T01:39:15;9.00;99.90
35373;DHT22;21476;51.652;7.852;2022-11-15T01:41:42;9.00;99.90
35373;DHT22;21476;51.652;7.852;2022-11-15T01:47:15;9.10;99.90
35373;DHT22;21476;51.652;7.852;2022-11-15T01:50:08;9.20;99.90
35373;DHT22;21476;51.652;7.852;2022-11-15T01:52:35;9.40;99.90
35373;DHT22;21476;51.652;7.852;2022-11-15T01:55:12;9.60;99.90
35373;DHT22;21476;51.652;7.852;2022-11-15T01:57:40;9.80;99.90
35373;DHT22;21476;51.652;7.852;2022-11-15T02:00:07;10.00;99.90
35373;DHT22;21476;51.652;7.852;2022-11-15T02:02:33;10.10;99.90
35373;DHT22;21476;51.652;7.852;2022-11-15T02:04:59;10.30;99.90
35373;DHT22;21476;51.652;7.852;2022-11-15T02:07:25;10.40;99.90
35373;DHT22;21476;51.652;7.852;2022-11-15T02:09:51;10.50;99.90
35373;DHT22;21476;51.652;7.852;2022-11-15T02:12:19;10.60;99.90
35373;DHT22;21476;51.652;7.852;2022-11-15T02:14:49;10.70;99.90
35373;DHT22;21476;51.652;7.852;2022-11-15T02:17:29;10.70;99.90
35373;DHT22;21476;51.652;7.852;2022-11-15T02:23:15;10.90;99.90
35373;DHT22;21476;51.652;7.852;2022-11-15T02:28:43;11.00;99.90
35373;DHT22;21476;51.652;7.852;2022-11-15T02:37:03;10.90;99.90
35373;DHT22;21476;51.652;7.852;2022-11-15T02:39:46;10.90;99.90
35373;DHT22;21476;51.652;7.852;2022-11-15T02:42:39;11.00;99.90
35373;DHT22;21476;51.652;7.852;2022-11-15T02:45:29;11.00;99.90
35373;DHT22;21476;51.652;7.852;2022-11-15T02:47:57;11.00;99.90
35373;DHT22;21476;51.652;7.852;2022-11-15T02:50:29;11.10;99.90
35373;DHT22;21476;51.652;7.852;2022-11-15T02:52:57;11.20;99.90
35373;DHT22;21476;51.652;7.852;2022-11-15T02:55:35;11.20;99.90
35373;DHT22;21476;51.652;7.852;2022-11-15T03:04:10;11.40;99.90
35373;DHT22;21476;51.652;7.852;2022-11-15T03:06:53;11.50;99.90
35373;DHT22;21476;51.652;7.852;2022-11-15T03:12:04;11.60;99.90
35373;DHT22;21476;51.652;7.852;2022-11-15T03:14:45;11.60;99.90
35373;DHT22;21476;51.652;7.852;2022-11-15T03:17:15;11.50;99.90
35373;DHT22;21476;51.652;7.852;2022-11-15T03:19:50;11.50;99.90
35373;DHT22;21476;51.652;7.852;2022-11-15T03:22:20;11.50;99.90
35373;DHT22;21476;51.652;7.852;2022-11-15T03:24:50;11.50;99.90
35373;DHT22;21476;51.652;7.852;2022-11-15T03:27:21;11.50;99.90
35373;DHT22;21476;51.652;7.852;2022-11-15T03:29:52;11.50;99.90
35373;DHT22;21476;51.652;7.852;2022-11-15T03:32:22;11.40;99.90
35373;DHT22;21476;51.652;7.852;2022-11-15T03:34:59;11.40;99.90
35373;DHT22;21476;51.652;7.852;2022-11-15T03:37:36;11.40;99.90
35373;DHT22;21476;51.652;7.852;2022-11-15T03:40:03;11.40;99.90
35373;DHT22;21476;51.652;7.852;2022-11-15T03:42:42;11.50;99.90
35373;DHT22;21476;51.652;7.852;2022-11-15T03:45:15;11.50;99.90
35373;DHT22;21476;51.652;7.852;2022-11-15T03:47:51;11.50;99.90
35373;DHT22;21476;51.652;7.852;2022-11-15T03:50:20;11.40;99.90
35373;DHT22;21476;51.652;7.852;2022-11-15T03:52:48;11.50;99.90
35373;DHT22;21476;51.652;7.852;2022-11-15T03:55:17;11.50;99.90
35373;DHT22;21476;51.652;7.852;2022-11-15T03:57:44;11.40;99.90
35373;DHT22;21476;51.652;7.852;2022-11-15T04:00:10;11.40;99.90
35373;DHT22;21476;51.652;7.852;2022-11-15T04:02:36;11.40;99.90
35373;DHT22;21476;51.652;7.852;2022-11-15T04:05:03;11.40;99.90
35373;DHT22;21476;51.652;7.852;2022-11-15T04:07:28;11.40;99.90
35373;DHT22;21476;51.652;7.852;2022-11-15T04:09:54;11.50;99.90
35373;DHT22;21476;51.652;7.852;2022-11-15T04:12:40;11.40;99.90
35373;DHT22;21476;51.652;7.852;2022-11-15T04:15:16;11.40;99.90
35373;DHT22;21476;51.652;7.852;2022-11-15T04:17:46;11.40;99.90
35373;DHT22;21476;51.652;7.852;2022-11-15T04:22:59;11.30;99.90
35373;DHT22;21476;51.652;7.852;2022-11-15T04:25:44;11.30;99.90
35373;DHT22;21476;51.652;7.852;2022-11-15T04:28:10;11.20;99.90
35373;DHT22;21476;51.652;7.852;2022-11-15T04:30:37;11.20;99.90
35373;DHT22;21476;51.652;7.852;2022-11-15T04:33:02;11.20;99.90
35373;DHT22;21476;51.652;7.852;2022-11-15T04:35:28;11.30;99.90
35373;DHT22;21476;51.652;7.852;2022-11-15T04:37:55;11.30;99.90
35373;DHT22;21476;51.652;7.852;2022-11-15T04:40:22;11.40;99.90
35373;DHT22;21476;51.652;7.852;2022-11-15T04:42:47;11.40;99.90
35373;DHT22;21476;51.652;7.852;2022-11-15T04:45:13;11.50;99.90
35373;DHT22;21476;51.652;7.852;2022-11-15T04:47:38;11.50;99.90
35373;DHT22;21476;51.652;7.852;2022-11-15T04:50:05;11.60;99.90
35373;DHT22;21476;51.652;7.852;2022-11-15T04:52:30;11.70;99.90
35373;DHT22;21476;51.652;7.852;2022-11-15T04:54:56;11.70;99.90
35373;DHT22;21476;51.652;7.852;2022-11-15T04:57:22;12.00;99.90
35373;DHT22;21476;51.652;7.852;2022-11-15T04:59:47;12.10;99.90
35373;DHT22;21476;51.652;7.852;2022-11-15T05:02:13;12.10;99.90
35373;DHT22;21476;51.652;7.852;2022-11-15T05:04:39;12.20;99.90
35373;DHT22;21476;51.652;7.852;2022-11-15T05:07:04;12.30;99.90
35373;DHT22;21476;51.652;7.852;2022-11-15T05:09:30;12.30;99.90
35373;DHT22;21476;51.652;7.852;2022-11-15T05:11:55;12.30;99.90
35373;DHT22;21476;51.652;7.852;2022-11-15T05:14:21;12.40;99.90
35373;DHT22;21476;51.652;7.852;2022-11-15T05:16:47;12.40;99.90
35373;DHT22;21476;51.652;7.852;2022-11-15T05:19:13;12.50;99.90
35373;DHT22;21476;51.652;7.852;2022-11-15T05:21:38;12.60;99.90
35373;DHT22;21476;51.652;7.852;2022-11-15T05:24:05;12.60;99.90
35373;DHT22;21476;51.652;7.852;2022-11-15T05:26:31;12.70;99.90
35373;DHT22;21476;51.652;7.852;2022-11-15T05:28:58;12.70;99.90
35373;DHT22;21476;51.652;7.852;2022-11-15T05:31:24;12.70;99.90
35373;DHT22;21476;51.652;7.852;2022-11-15T05:33:50;12.70;99.90
35373;DHT22;21476;51.652;7.852;2022-11-15T05:38:46;12.70;99.90
35373;DHT22;21476;51.652;7.852;2022-11-15T05:41:13;12.70;99.90
35373;DHT22;21476;51.652;7.852;2022-11-15T05:43:40;12.70;99.90
35373;DHT22;21476;51.652;7.852;2022-11-15T05:46:08;12.70;99.90
35373;DHT22;21476;51.652;7.852;2022-11-15T05:48:35;12.70;99.90
35373;DHT22;21476;51.652;7.852;2022-11-15T05:51:03;12.70;99.90
35373;DHT22;21476;51.652;7.852;2022-11-15T05:53:30;12.60;99.90
35373;DHT22;21476;51.652;7.852;2022-11-15T05:55:56;12.60;99.90
35373;DHT22;21476;51.652;7.852;2022-11-15T05:58:22;12.50;99.90
35373;DHT22;21476;51.652;7.852;2022-11-15T06:00:48;12.50;99.90
35373;DHT22;21476;51.652;7.852;2022-11-15T06:03:13;12.60;99.90
35373;DHT22;21476;51.652;7.852;2022-11-15T06:05:40;12.50;99.90
35373;DHT22;21476;51.652;7.852;2022-11-15T06:08:05;12.60;99.90
35373;DHT22;21476;51.652;7.852;2022-11-15T06:10:31;12.60;99.90
35373;DHT22;21476;51.652;7.852;2022-11-15T06:13:02;12.60;99.90
35373;DHT22;21476;51.652;7.852;2022-11-15T06:15:28;12.60;99.90
35373;DHT22;21476;51.652;7.852;2022-11-15T06:17:57;12.70;99.90
35373;DHT22;21476;51.652;7.852;2022-11-15T06:20:27;12.60;99.90
35373;DHT22;21476;51.652;7.852;2022-11-15T06:23:00;12.50;99.90
35373;DHT22;21476;51.652;7.852;2022-11-15T06:25:27;12.60;99.90
35373;DHT22;21476;51.652;7.852;2022-11-15T06:27:53;12.50;99.90
35373;DHT22;21476;51.652;7.852;2022-11-15T06:30:20;12.50;99.90
35373;DHT22;21476;51.652;7.852;2022-11-15T06:32:46;12.50;99.90
35373;DHT22;21476;51.652;7.852;2022-11-15T06:35:12;12.40;99.90
35373;DHT22;21476;51.652;7.852;2022-11-15T06:37:38;12.50;99.90
35373;DHT22;21476;51.652;7.852;2022-11-15T06:40:04;12.60;99.90
35373;DHT22;21476;51.652;7.852;2022-11-15T06:42:30;12.60;99.90
35373;DHT22;21476;51.652;7.852;2022-11-15T06:44:55;12.50;99.90
35373;DHT22;21476;51.652;7.852;2022-11-15T06:47:21;12.60;99.90
35373;DHT22;21476;51.652;7.852;2022-11-15T06:49:46;12.50;99.90
35373;DHT22;21476;51.652;7.852;2022-11-15T06:52:12;12.50;99.90
35373;DHT22;21476;51.652;7.852;2022-11-15T06:54:37;12.40;99.90
35373;DHT22;21476;51.652;7.852;2022-11-15T06:57:04;12.50;99.90
35373;DHT22;21476;51.652;7.852;2022-11-15T06:59:30;12.40;99.90
35373;DHT22;21476;51.652;7.852;2022-11-15T07:01:55;12.40;99.90
35373;DHT22;21476;51.652;7.852;2022-11-15T07:04:21;12.40;99.90
35373;DHT22;21476;51.652;7.852;2022-11-15T07:06:47;12.30;99.90
35373;DHT22;21476;51.652;7.852;2022-11-15T07:09:13;12.30;99.90
35373;DHT22;21476;51.652;7.852;2022-11-15T07:11:39;12.30;99.90
35373;DHT22;21476;51.652;7.852;2022-11-15T07:14:05;12.40;99.90
35373;DHT22;21476;51.652;7.852;2022-11-15T07:16:30;12.50;99.90
35373;DHT22;21476;51.652;7.852;2022-11-15T07:18:56;12.60;99.90
35373;DHT22;21476;51.652;7.852;2022-11-15T07:21:21;12.70;99.90
35373;DHT22;21476;51.652;7.852;2022-11-15T07:23:47;12.80;99.90
35373;DHT22;21476;51.652;7.852;2022-11-15T07:26:13;12.70;99.90
35373;DHT22;21476;51.652;7.852;2022-11-15T07:28:38;12.70;99.90
35373;DHT22;21476;51.652;7.852;2022-11-15T07:31:06;12.70;99.90
35373;DHT22;21476;51.652;7.852;2022-11-15T07:33:31;12.70;99.90
35373;DHT22;21476;51.652;7.852;2022-11-15T07:36:05;12.80;99.90
35373;DHT22;21476;51.652;7.852;2022-11-15T07:38:32;12.80;99.90
35373;DHT22;21476;51.652;7.852;2022-11-15T07:40:59;13.00;99.90
35373;DHT22;21476;51.652;7.852;2022-11-15T07:43:26;13.20;99.90
35373;DHT22;21476;51.652;7.852;2022-11-15T07:45:53;13.90;99.90
35373;DHT22;21476;51.652;7.852;2022-11-15T07:48:19;14.70;99.90
35373;DHT22;21476;51.652;7.852;2022-11-15T07:50:45;15.30;99.90
35373;DHT22;21476;51.652;7.852;2022-11-15T07:53:11;15.50;99.90
35373;DHT22;21476;51.652;7.852;2022-11-15T07:55:39;15.70;99.90
35373;DHT22;21476;51.652;7.852;2022-11-15T07:58:09;16.10;99.90
35373;DHT22;21476;51.652;7.852;2022-11-15T08:00:36;16.70;99.90
35373;DHT22;21476;51.652;7.852;2022-11-15T08:03:12;17.10;99.90
35373;DHT22;21476;51.652;7.852;2022-11-15T08:05:39;17.10;99.90
35373;DHT22;21476;51.652;7.852;2022-11-15T08:08:06;16.70;99.90
35373;DHT22;21476;51.652;7.852;2022-11-15T08:10:32;16.40;99.90
35373;DHT22;21476;51.652;7.852;2022-11-15T08:13:05;16.40;99.90
35373;DHT22;21476;51.652;7.852;2022-11-15T08:15:32;16.30;99.90
35373;DHT22;21476;51.652;7.852;2022-11-15T08:17:59;16.00;99.90
35373;DHT22;21476;51.652;7.852;2022-11-15T08:20:27;16.00;99.90
35373;DHT22;21476;51.652;7.852;2022-11-15T08:22:57;16.10;99.90
35373;DHT22;21476;51.652;7.852;2022-11-15T08:25:23;16.20;99.90
35373;DHT22;21476;51.652;7.852;2022-11-15T08:27:53;16.40;99.90
35373;DHT22;21476;51.652;7.852;2022-11-15T08:30:19;16.40;99.90
35373;DHT22;21476;51.652;7.852;2022-11-15T08:32:44;16.30;99.90
35373;DHT22;21476;51.652;7.852;2022-11-15T08:35:10;16.30;99.90
35373;DHT22;21476;51.652;7.852;2022-11-15T08:37:36;16.60;99.90
35373;DHT22;21476;51.652;7.852;2022-11-15T08:40:02;16.60;99.90
35373;DHT22;21476;51.652;7.852;2022-11-15T08:42:28;16.50;99.90
35373;DHT22;21476;51.652;7.852;2022-11-15T08:44:53;16.60;99.90
35373;DHT22;21476;51.652;7.852;2022-11-15T08:47:19;16.50;99.90
35373;DHT22;21476;51.652;7.852;2022-11-15T08:49:45;17.00;99.90
35373;DHT22;21476;51.652;7.852;2022-11-15T08:52:11;17.70;99.90
35373;DHT22;21476;51.652;7.852;2022-11-15T08:54:36;18.00;99.90
35373;DHT22;21476;51.652;7.852;2022-11-15T08:57:02;18.40;99.90
35373;DHT22;21476;51.652;7.852;2022-11-15T08:59:27;18.50;99.90
35373;DHT22;21476;51.652;7.852;2022-11-15T09:17:30;18.90;99.90
35373;DHT22;21476;51.652;7.852;2022-11-15T09:19:55;18.30;99.90
35373;DHT22;21476;51.652;7.852;2022-11-15T09:22:21;18.00;99.90
35373;DHT22;21476;51.652;7.852;2022-11-15T09:24:46;17.70;99.90
35373;DHT22;21476;51.652;7.852;2022-11-15T09:27:12;17.50;99.90
35373;DHT22;21476;51.652;7.852;2022-11-15T09:29:38;17.60;99.90
35373;DHT22;21476;51.652;7.852;2022-11-15T09:32:04;17.30;99.90
35373;DHT22;21476;51.652;7.852;2022-11-15T09:34:30;17.20;99.90
35373;DHT22;21476;51.652;7.852;2022-11-15T09:36:56;17.20;99.90
35373;DHT22;21476;51.652;7.852;2022-11-15T09:39:22;17.50;99.90
35373;DHT22;21476;51.652;7.852;2022-11-15T09:50:00;17.30;99.90
35373;DHT22;21476;51.652;7.852;2022-11-15T09:52:25;17.00;99.90
35373;DHT22;21476;51.652;7.852;2022-11-15T09:54:53;16.80;99.90
35373;DHT22;21476;51.652;7.852;2022-11-15T10:00:38;16.40;99.90
35373;DHT22;21476;51.652;7.852;2022-11-15T10:03:35;16.50;99.90
35373;DHT22;21476;51.652;7.852;2022-11-15T10:06:04;16.70;99.90
35373;DHT22;21476;51.652;7.852;2022-11-15T10:11:10;16.90;99.90
35373;DHT22;21476;51.652;7.852;2022-11-15T10:13:43;16.80;99.90
35373;DHT22;21476;51.652;7.852;2022-11-15T10:22:25;17.60;99.90
35373;DHT22;21476;51.652;7.852;2022-11-15T10:27:34;18.10;99.90
35373;DHT22;21476;51.652;7.852;2022-11-15T10:29:59;18.20;99.90
35373;DHT22;21476;51.652;7.852;2022-11-15T10:32:25;18.30;99.90
35373;DHT22;21476;51.652;7.852;2022-11-15T10:34:52;18.30;99.90
35373;DHT22;21476;51.652;7.852;2022-11-15T10:37:31;18.00;99.90
35373;DHT22;21476;51.652;7.852;2022-11-15T10:40:04;18.30;99.90
35373;DHT22;21476;51.652;7.852;2022-11-15T10:42:30;18.70;99.90
35373;DHT22;21476;51.652;7.852;2022-11-15T10:44:56;18.80;99.90
35373;DHT22;21476;51.652;7.852;2022-11-15T10:49:59;18.80;99.90
35373;DHT22;21476;51.652;7.852;2022-11-15T10:52:25;18.40;99.90
35373;DHT22;21476;51.652;7.852;2022-11-15T10:55:02;18.10;99.90
35373;DHT22;21476;51.652;7.852;2022-11-15T10:57:31;17.70;99.90
35373;DHT22;21476;51.652;7.852;2022-11-15T11:00:44;17.50;99.90
35373;DHT22;21476;51.652;7.852;2022-11-15T11:08:20;17.80;99.90
35373;DHT22;21476;51.652;7.852;2022-11-15T11:10:53;17.80;99.90
35373;DHT22;21476;51.652;7.852;2022-11-15T11:15:59;17.80;99.90
35373;DHT22;21476;51.652;7.852;2022-11-15T11:18:37;17.60;99.90
35373;DHT22;21476;51.652;7.852;2022-11-15T11:21:14;17.40;99.90
35373;DHT22;21476;51.652;7.852;2022-11-15T11:26:58;17.40;99.90
35373;DHT22;21476;51.652;7.852;2022-11-15T11:37:19;16.70;99.90
35373;DHT22;21476;51.652;7.852;2022-11-15T11:45:47;16.60;99.90
35373;DHT22;21476;51.652;7.852;2022-11-15T11:48:22;16.60;99.90
35373;DHT22;21476;51.652;7.852;2022-11-15T11:50:49;16.70;99.90
35373;DHT22;21476;51.652;7.852;2022-11-15T11:53:29;16.70;99.90
35373;DHT22;21476;51.652;7.852;2022-11-15T11:55:59;16.70;99.90
35373;DHT22;21476;51.652;7.852;2022-11-15T11:58:45;16.70;99.90
35373;DHT22;21476;51.652;7.852;2022-11-15T12:01:24;16.70;99.90
35373;DHT22;21476;51.652;7.852;2022-11-15T12:04:01;16.70;99.90
35373;DHT22;21476;51.652;7.852;2022-11-15T12:09:10;16.50;99.90
35373;DHT22;21476;51.652;7.852;2022-11-15T12:11:48;16.40;99.90
35373;DHT22;21476;51.652;7.852;2022-11-15T12:17:09;16.40;99.90
35373;DHT22;21476;51.652;7.852;2022-11-15T12:19:36;16.30;99.90
35373;DHT22;21476;51.652;7.852;2022-11-15T12:22:15;16.30;99.90
35373;DHT22;21476;51.652;7.852;2022-11-15T12:24:57;16.30;99.90
35373;DHT22;21476;51.652;7.852;2022-11-15T12:30:12;16.20;99.90
35373;DHT22;21476;51.652;7.852;2022-11-15T12:32:39;16.10;99.90
35373;DHT22;21476;51.652;7.852;2022-11-15T12:35:37;15.90;99.90
35373;DHT22;21476;51.652;7.852;2022-11-15T12:38:04;15.90;99.90
35373;DHT22;21476;51.652;7.852;2022-11-15T12:40:37;15.90;99.90
35373;DHT22;21476;51.652;7.852;2022-11-15T12:45:36;16.10;99.90
35373;DHT22;21476;51.652;7.852;2022-11-15T12:58:47;15.70;99.90
35373;DHT22;21476;51.652;7.852;2022-11-15T13:06:42;15.70;99.90
35373;DHT22;21476;51.652;7.852;2022-11-15T13:12:09;15.60;99.90
35373;DHT22;21476;51.652;7.852;2022-11-15T13:14:41;15.50;99.90
35373;DHT22;21476;51.652;7.852;2022-11-15T13:19:47;15.60;99.90
35373;DHT22;21476;51.652;7.852;2022-11-15T13:22:13;15.60;99.90
35373;DHT22;21476;51.652;7.852;2022-11-15T13:24:59;15.60;99.90
35373;DHT22;21476;51.652;7.852;2022-11-15T13:27:26;15.60;99.90
35373;DHT22;21476;51.652;7.852;2022-11-15T13:29:53;15.60;99.90
35373;DHT22;21476;51.652;7.852;2022-11-15T13:32:19;15.50;99.90
35373;DHT22;21476;51.652;7.852;2022-11-15T13:34:49;15.50;99.90
35373;DHT22;21476;51.652;7.852;2022-11-15T13:39:43;15.40;99.90
35373;DHT22;21476;51.652;7.852;2022-11-15T13:42:17;15.30;99.90
35373;DHT22;21476;51.652;7.852;2022-11-15T13:45:01;15.30;99.90
35373;DHT22;21476;51.652;7.852;2022-11-15T13:47:29;15.30;99.90
35373;DHT22;21476;51.652;7.852;2022-11-15T13:49:59;15.20;99.90
35373;DHT22;21476;51.652;7.852;2022-11-15T13:52:36;15.20;99.90
35373;DHT22;21476;51.652;7.852;2022-11-15T13:55:13;15.20;99.90
35373;DHT22;21476;51.652;7.852;2022-11-15T13:57:48;15.20;99.90
35373;DHT22;21476;51.652;7.852;2022-11-15T14:00:39;15.20;99.90
35373;DHT22;21476;51.652;7.852;2022-11-15T14:03:21;15.10;99.90
35373;DHT22;21476;51.652;7.852;2022-11-15T14:06:07;15.00;99.90
35373;DHT22;21476;51.652;7.852;2022-11-15T14:08:35;14.80;99.90
35373;DHT22;21476;51.652;7.852;2022-11-15T14:11:10;14.70;99.90
35373;DHT22;21476;51.652;7.852;2022-11-15T14:13:38;14.60;99.90
35373;DHT22;21476;51.652;7.852;2022-11-15T14:16:20;14.50;99.90
35373;DHT22;21476;51.652;7.852;2022-11-15T14:18:51;14.50;99.90
35373;DHT22;21476;51.652;7.852;2022-11-15T14:21:18;14.50;99.90
35373;DHT22;21476;51.652;7.852;2022-11-15T14:23:44;14.60;99.90
35373;DHT22;21476;51.652;7.852;2022-11-15T14:26:32;14.50;99.90
35373;DHT22;21476;51.652;7.852;2022-11-15T14:29:36;14.60;99.90
35373;DHT22;21476;51.652;7.852;2022-11-15T14:34:45;14.40;99.90
35373;DHT22;21476;51.652;7.852;2022-11-15T14:39:44;14.30;99.90
35373;DHT22;21476;51.652;7.852;2022-11-15T14:42:09;14.30;99.90
35373;DHT22;21476;51.652;7.852;2022-11-15T14:44:35;14.20;99.90
35373;DHT22;21476;51.652;7.852;2022-11-15T14:47:00;14.10;99.90
35373;DHT22;21476;51.652;7.852;2022-11-15T14:49:26;14.10;99.90
35373;DHT22;21476;51.652;7.852;2022-11-15T14:51:52;14.10;99.90
35373;DHT22;21476;51.652;7.852;2022-11-15T14:54:17;14.20;99.90
35373;DHT22;21476;51.652;7.852;2022-11-15T14:56:43;14.20;99.90
35373;DHT22;21476;51.652;7.852;2022-11-15T14:59:08;14.10;99.90
35373;DHT22;21476;51.652;7.852;2022-11-15T15:01:34;14.00;99.90
35373;DHT22;21476;51.652;7.852;2022-11-15T15:04:00;14.00;99.90
35373;DHT22;21476;51.652;7.852;2022-11-15T15:06:26;13.80;99.90
35373;DHT22;21476;51.652;7.852;2022-11-15T15:08:51;13.80;99.90
35373;DHT22;21476;51.652;7.852;2022-11-15T15:11:28;13.80;99.90
35373;DHT22;21476;51.652;7.852;2022-11-15T15:13:54;13.70;99.90
35373;DHT22;21476;51.652;7.852;2022-11-15T15:16:22;13.60;99.90
35373;DHT22;21476;51.652;7.852;2022-11-15T15:18:48;13.50;99.90
35373;DHT22;21476;51.652;7.852;2022-11-15T15:21:20;13.40;99.90
35373;DHT22;21476;51.652;7.852;2022-11-15T15:23:47;13.30;99.90
35373;DHT22;21476;51.652;7.852;2022-11-15T15:26:14;13.20;99.90
35373;DHT22;21476;51.652;7.852;2022-11-15T15:28:40;13.20;99.90
35373;DHT22;21476;51.652;7.852;2022-11-15T15:31:06;13.10;99.90
35373;DHT22;21476;51.652;7.852;2022-11-15T15:33:32;13.00;99.90
35373;DHT22;21476;51.652;7.852;2022-11-15T15:35:58;12.90;99.90
35373;DHT22;21476;51.652;7.852;2022-11-15T15:38:24;12.90;99.90
35373;DHT22;21476;51.652;7.852;2022-11-15T15:40:50;12.80;99.90
35373;DHT22;21476;51.652;7.852;2022-11-15T15:43:18;12.70;99.90
35373;DHT22;21476;51.652;7.852;2022-11-15T15:45:44;12.70;99.90
35373;DHT22;21476;51.652;7.852;2022-11-15T15:48:15;12.60;99.90
35373;DHT22;21476;51.652;7.852;2022-11-15T15:50:42;12.60;99.90
35373;DHT22;21476;51.652;7.852;2022-11-15T15:53:09;12.60;99.90
35373;DHT22;21476;51.652;7.852;2022-11-15T15:55:37;12.50;99.90
35373;DHT22;21476;51.652;7.852;2022-11-15T15:58:03;12.40;99.90
35373;DHT22;21476;51.652;7.852;2022-11-15T16:00:30;12.40;99.90
35373;DHT22;21476;51.652;7.852;2022-11-15T16:02:58;12.40;99.90
35373;DHT22;21476;51.652;7.852;2022-11-15T16:05:24;12.40;99.90
35373;DHT22;21476;51.652;7.852;2022-11-15T16:07:50;12.40;99.90
35373;DHT22;21476;51.652;7.852;2022-11-15T16:10:28;12.40;99.90
35373;DHT22;21476;51.652;7.852;2022-11-15T16:12:55;12.40;99.90
35373;DHT22;21476;51.652;7.852;2022-11-15T16:15:22;12.30;99.90
35373;DHT22;21476;51.652;7.852;2022-11-15T16:17:53;12.40;99.90
35373;DHT22;21476;51.652;7.852;2022-11-15T16:23:06;12.30;99.90
35373;DHT22;21476;51.652;7.852;2022-11-15T16:25:51;12.30;99.90
35373;DHT22;21476;51.652;7.852;2022-11-15T16:28:22;12.30;99.90
35373;DHT22;21476;51.652;7.852;2022-11-15T16:30:49;12.10;99.90
35373;DHT22;21476;51.652;7.852;2022-11-15T16:33:15;12.10;99.90
35373;DHT22;21476;51.652;7.852;2022-11-15T16:35:42;12.00;99.90
35373;DHT22;21476;51.652;7.852;2022-11-15T16:38:14;11.90;99.90
35373;DHT22;21476;51.652;7.852;2022-11-15T16:40:40;11.90;99.90
35373;DHT22;21476;51.652;7.852;2022-11-15T16:43:05;12.00;99.90
35373;DHT22;21476;51.652;7.852;2022-11-15T16:45:34;11.90;99.90
35373;DHT22;21476;51.652;7.852;2022-11-15T16:48:00;11.90;99.90
35373;DHT22;21476;51.652;7.852;2022-11-15T16:50:28;11.80;99.90
35373;DHT22;21476;51.652;7.852;2022-11-15T16:52:55;11.80;99.90
35373;DHT22;21476;51.652;7.852;2022-11-15T16:55:23;11.80;99.90
35373;DHT22;21476;51.652;7.852;2022-11-15T16:57:49;11.80;99.90
35373;DHT22;21476;51.652;7.852;2022-11-15T17:00:16;11.80;99.90
35373;DHT22;21476;51.652;7.852;2022-11-15T17:02:47;11.90;99.90
35373;DHT22;21476;51.652;7.852;2022-11-15T17:05:13;11.90;99.90
35373;DHT22;21476;51.652;7.852;2022-11-15T17:07:39;11.90;99.90
35373;DHT22;21476;51.652;7.852;2022-11-15T17:10:06;12.00;99.90
35373;DHT22;21476;51.652;7.852;2022-11-15T17:12:35;12.00;99.90
35373;DHT22;21476;51.652;7.852;2022-11-15T17:15:01;12.00;99.90
35373;DHT22;21476;51.652;7.852;2022-11-15T17:17:27;12.00;99.90
35373;DHT22;21476;51.652;7.852;2022-11-15T17:19:53;12.00;99.90
35373;DHT22;21476;51.652;7.852;2022-11-15T17:22:19;12.00;99.90
35373;DHT22;21476;51.652;7.852;2022-11-15T17:24:45;12.00;99.90
35373;DHT22;21476;51.652;7.852;2022-11-15T17:27:11;12.00;99.90
35373;DHT22;21476;51.652;7.852;2022-11-15T17:29:37;12.00;99.90
35373;DHT22;21476;51.652;7.852;2022-11-15T17:32:02;12.00;99.90
35373;DHT22;21476;51.652;7.852;2022-11-15T17:34:28;12.00;99.90
35373;DHT22;21476;51.652;7.852;2022-11-15T17:36:54;12.00;99.90
35373;DHT22;21476;51.652;7.852;2022-11-15T17:39:20;12.10;99.90
35373;DHT22;21476;51.652;7.852;2022-11-15T17:41:48;12.10;99.90
35373;DHT22;21476;51.652;7.852;2022-11-15T17:44:13;12.10;99.90
35373;DHT22;21476;51.652;7.852;2022-11-15T17:46:39;12.10;99.90
35373;DHT22;21476;51.652;7.852;2022-11-15T17:49:05;12.10;99.90
35373;DHT22;21476;51.652;7.852;2022-11-15T17:51:31;12.10;99.90
35373;DHT22;21476;51.652;7.852;2022-11-15T17:53:58;12.10;99.90
35373;DHT22;21476;51.652;7.852;2022-11-15T17:56:27;12.10;99.90
35373;DHT22;21476;51.652;7.852;2022-11-15T17:58:55;12.10;99.90
35373;DHT22;21476;51.652;7.852;2022-11-15T18:03:50;12.10;99.90